IDB weather

Idre Airport
Idre, Dalarnas län, Sweden

Public forecast

Using degrees Celsius for public forecast. Weather courtesy of forecast.io.

METAR (pilot weather report)

Closest report is Røros Airport, 56.8 nm (105.3 km) NW. Retrieved 2019/07/22 23:20 UTC (23 minutes ago):

ENRO 222320Z AUTO 12007KT 080V150 9999NDV FEW092/// BKN130/// OVC150/// 14/10 Q1012

TAF (pilot weather forecast)

Closest forecast is Trondheim Airport Værnes, 107.0 nm (198.2 km) NNW. Retrieved 2019/07/22 18:57 UTC (5 hours ago):

TAF ENVA 221700Z 2218/2318 VRB05KT 9999 FEW020 SCT070 BECMG 2302/2305 27010KT -RA BKN012 PROB40 2305/2309 3000 -RADZ BR BKN005 BECMG 2309/2312 FEW020 SCT070 BECMG 2312/2315 VRB05KT